createdAt,value
2022-11-03T00:02:00.980Z,2.78
2022-11-03T00:04:28.177Z,2.80
2022-11-03T00:06:55.750Z,2.88
2022-11-03T00:09:23.956Z,2.90
2022-11-03T00:11:51.869Z,3.05
2022-11-03T00:14:19.453Z,3.45
2022-11-03T00:16:47.210Z,2.60
2022-11-03T00:19:16.252Z,2.75
2022-11-03T00:21:43.993Z,2.53
2022-11-03T00:24:11.145Z,2.50
2022-11-03T00:26:38.514Z,2.45
2022-11-03T00:29:10.658Z,2.75
2022-11-03T00:31:39.368Z,2.90
2022-11-03T00:34:07.861Z,3.20
2022-11-03T00:36:37.290Z,2.78
2022-11-03T00:39:05.260Z,2.30
2022-11-03T00:41:32.395Z,2.35
2022-11-03T00:43:59.646Z,3.17
2022-11-03T00:46:27.202Z,2.45
2022-11-03T00:48:54.066Z,2.28
2022-11-03T00:51:22.756Z,2.03
2022-11-03T00:53:52.406Z,2.30
2022-11-03T00:56:26.819Z,1.77
2022-11-03T00:58:54.844Z,2.08
2022-11-03T01:01:27.140Z,2.88
2022-11-03T01:04:14.828Z,2.13
2022-11-03T01:06:50.745Z,2.20
2022-11-03T01:09:24.978Z,2.28
2022-11-03T01:11:56.545Z,2.13
2022-11-03T01:14:24.390Z,2.22
2022-11-03T01:16:51.342Z,3.38
2022-11-03T01:19:18.212Z,3.20
2022-11-03T01:21:45.229Z,3.08
2022-11-03T01:24:12.181Z,3.65
2022-11-03T01:26:39.090Z,3.28
2022-11-03T01:29:05.984Z,3.03
2022-11-03T01:31:32.953Z,3.42
2022-11-03T01:33:59.854Z,3.15
2022-11-03T01:36:26.862Z,3.20
2022-11-03T01:38:55.996Z,3.25
2022-11-03T01:41:28.141Z,3.13
2022-11-03T01:44:07.414Z,2.85
2022-11-03T01:47:01.492Z,3.20
2022-11-03T01:49:53.299Z,3.20
2022-11-03T01:52:37.080Z,2.80
2022-11-03T01:55:15.911Z,2.92
2022-11-03T01:58:00.796Z,3.03
2022-11-03T02:00:27.784Z,2.80
2022-11-03T02:02:54.912Z,2.80
2022-11-03T02:05:25.838Z,3.00
2022-11-03T02:08:11.224Z,2.38
2022-11-03T02:10:38.736Z,2.50
2022-11-03T02:13:15.201Z,2.60
2022-11-03T02:15:42.855Z,2.83
2022-11-03T02:18:11.173Z,2.90
2022-11-03T02:20:40.153Z,2.58
2022-11-03T02:23:29.321Z,2.58
2022-11-03T02:25:58.945Z,2.90
2022-11-03T02:28:31.870Z,2.50
2022-11-03T02:33:52.717Z,2.10
2022-11-03T02:36:40.455Z,2.38
2022-11-03T02:39:12.046Z,2.58
2022-11-03T02:41:40.331Z,2.90
2022-11-03T02:44:14.948Z,2.22
2022-11-03T02:46:44.193Z,2.50
2022-11-03T02:49:11.093Z,2.67
2022-11-03T02:51:38.093Z,2.15
2022-11-03T02:54:18.154Z,2.05
2022-11-03T02:57:00.425Z,2.15
2022-11-03T02:59:38.148Z,2.97
2022-11-03T03:02:15.200Z,2.03
2022-11-03T03:05:11.214Z,1.90
2022-11-03T03:07:41.293Z,2.38
2022-11-03T03:10:12.412Z,2.28
2022-11-03T03:12:47.688Z,2.40
2022-11-03T03:15:16.849Z,3.25
2022-11-03T03:17:57.973Z,3.25
2022-11-03T03:20:32.690Z,2.55
2022-11-03T03:23:06.212Z,2.03
2022-11-03T03:26:03.376Z,2.40
2022-11-03T03:28:40.629Z,1.75
2022-11-03T03:31:12.685Z,2.30
2022-11-03T03:33:43.514Z,1.97
2022-11-03T03:36:20.096Z,2.15
2022-11-03T03:38:54.499Z,2.58
2022-11-03T03:41:24.448Z,2.13
2022-11-03T03:43:57.356Z,2.50
2022-11-03T03:48:54.071Z,2.20
2022-11-03T03:51:25.023Z,2.30
2022-11-03T03:53:53.305Z,2.08
2022-11-03T03:56:31.893Z,2.10
2022-11-03T03:58:58.819Z,2.20
2022-11-03T04:01:25.930Z,2.13
2022-11-03T04:03:52.865Z,1.90
2022-11-03T04:06:19.799Z,2.47
2022-11-03T04:08:46.679Z,2.15
2022-11-03T04:11:31.983Z,2.22
2022-11-03T04:14:17.506Z,2.72
2022-11-03T04:17:02.819Z,2.60
2022-11-03T04:19:48.208Z,2.45
2022-11-03T04:22:17.936Z,3.25
2022-11-03T04:24:50.569Z,2.90
2022-11-03T04:27:23.377Z,2.50
2022-11-03T04:29:50.527Z,2.92
2022-11-03T04:32:18.447Z,2.80
2022-11-03T04:34:47.238Z,1.80
2022-11-03T04:37:15.394Z,2.33
2022-11-03T04:42:21.424Z,2.17
2022-11-03T04:44:49.891Z,2.20
2022-11-03T04:47:18.327Z,2.30
2022-11-03T04:49:47.490Z,2.78
2022-11-03T04:52:22.101Z,2.80
2022-11-03T04:54:52.363Z,2.95
2022-11-03T04:57:19.263Z,2.80
2022-11-03T04:59:49.103Z,2.90
2022-11-03T05:02:19.902Z,2.63
2022-11-03T05:04:47.014Z,2.50
2022-11-03T05:07:31.005Z,2.80
2022-11-03T05:09:58.114Z,2.70
2022-11-03T05:12:25.536Z,2.80
2022-11-03T05:14:58.071Z,2.70
2022-11-03T05:17:28.411Z,2.67
2022-11-03T05:20:02.551Z,2.72
2022-11-03T05:22:36.748Z,2.85
2022-11-03T05:25:34.317Z,2.65
2022-11-03T05:28:01.279Z,2.70
2022-11-03T05:30:28.236Z,3.20
2022-11-03T05:32:55.150Z,3.72
2022-11-03T05:35:23.616Z,4.00
2022-11-03T05:37:51.392Z,3.20
2022-11-03T05:40:24.385Z,2.90
2022-11-03T05:45:29.838Z,2.40
2022-11-03T05:47:57.838Z,2.60
2022-11-03T05:50:27.061Z,2.80
2022-11-03T05:53:08.401Z,2.45
2022-11-03T05:55:37.078Z,2.80
2022-11-03T05:58:14.442Z,3.22
2022-11-03T06:00:48.115Z,2.90
2022-11-03T06:03:21.481Z,3.33
2022-11-03T06:05:48.420Z,2.97
2022-11-03T06:10:56.912Z,5.65
2022-11-03T06:13:39.126Z,3.28
2022-11-03T06:16:27.279Z,2.83
2022-11-03T06:18:54.342Z,3.25
2022-11-03T06:21:24.519Z,3.60
2022-11-03T06:23:53.973Z,3.65
2022-11-03T06:26:24.183Z,3.28
2022-11-03T06:28:51.767Z,3.50
2022-11-03T06:31:31.754Z,3.55
2022-11-03T06:33:59.451Z,3.90
2022-11-03T06:36:35.689Z,4.35
2022-11-03T06:39:09.642Z,4.05
2022-11-03T06:41:37.538Z,4.75
2022-11-03T06:44:24.721Z,3.95
2022-11-03T06:47:06.930Z,4.50
2022-11-03T06:49:35.827Z,3.83
2022-11-03T06:52:16.861Z,4.78
2022-11-03T06:54:46.894Z,3.80
2022-11-03T06:57:17.138Z,4.03
2022-11-03T06:59:44.203Z,3.33
2022-11-03T07:02:48.383Z,4.75
2022-11-03T07:05:26.964Z,3.63
2022-11-03T07:08:15.894Z,3.95
2022-11-03T07:10:43.002Z,3.33
2022-11-03T07:13:23.508Z,4.10
2022-11-03T07:15:51.274Z,4.30
2022-11-03T07:18:27.534Z,4.10
2022-11-03T07:20:55.619Z,4.63
2022-11-03T07:23:29.384Z,4.60
2022-11-03T07:26:01.588Z,4.95
2022-11-03T07:28:36.216Z,4.63
2022-11-03T07:31:22.037Z,5.38
2022-11-03T07:33:49.533Z,6.00
2022-11-03T07:36:21.152Z,6.05
2022-11-03T07:38:52.826Z,6.40
2022-11-03T07:41:22.769Z,6.32
2022-11-03T07:43:56.789Z,5.68
2022-11-03T07:46:25.453Z,5.03
2022-11-03T07:48:57.485Z,4.20
2022-11-03T07:51:37.551Z,6.13
2022-11-03T07:54:10.615Z,6.43
2022-11-03T07:56:45.231Z,12.07
2022-11-03T07:59:20.241Z,15.88
2022-11-03T08:01:55.776Z,18.00
2022-11-03T08:04:27.408Z,15.95
2022-11-03T08:06:54.764Z,10.70
2022-11-03T08:09:21.843Z,9.80
2022-11-03T08:11:49.234Z,9.45
2022-11-03T08:14:16.387Z,8.60
2022-11-03T08:16:43.390Z,7.97
2022-11-03T08:19:10.263Z,7.57
2022-11-03T08:21:37.447Z,9.65
2022-11-03T08:24:05.696Z,9.15
2022-11-03T08:26:32.660Z,7.43
2022-11-03T08:28:59.544Z,6.05
2022-11-03T08:31:26.495Z,6.45
2022-11-03T08:33:53.416Z,6.68
2022-11-03T08:36:20.936Z,8.20
2022-11-03T08:38:47.944Z,6.57
2022-11-03T08:41:15.023Z,7.60
2022-11-03T08:43:41.904Z,5.75
2022-11-03T08:46:18.093Z,6.43
2022-11-03T08:48:46.436Z,6.78
2022-11-03T08:51:14.613Z,6.80
2022-11-03T08:53:45.199Z,7.18
2022-11-03T08:56:18.019Z,8.05
2022-11-03T08:58:47.575Z,7.43
2022-11-03T09:01:30.330Z,6.43
2022-11-03T09:05:28.055Z,9.10
2022-11-03T09:10:43.102Z,7.40
2022-11-03T09:13:10.530Z,6.93
2022-11-03T09:18:54.301Z,5.85
2022-11-03T09:22:02.344Z,6.43
2022-11-03T09:24:30.572Z,6.72
2022-11-03T09:27:02.019Z,6.45
2022-11-03T09:29:36.420Z,6.87
2022-11-03T09:32:12.982Z,6.80
2022-11-03T09:34:39.988Z,6.82
2022-11-03T09:37:06.940Z,6.93
2022-11-03T09:39:34.423Z,6.75
2022-11-03T09:42:03.781Z,7.03
2022-11-03T09:44:36.484Z,7.43
2022-11-03T09:47:06.777Z,7.25
2022-11-03T09:49:34.976Z,7.68
2022-11-03T09:52:03.900Z,7.57
2022-11-03T09:54:31.736Z,8.52
2022-11-03T09:57:09.419Z,6.88
2022-11-03T09:59:38.578Z,6.95
2022-11-03T10:02:24.381Z,7.03
2022-11-03T10:04:53.785Z,7.20
2022-11-03T10:07:52.046Z,7.20
2022-11-03T10:10:38.098Z,7.15
2022-11-03T10:17:02.930Z,7.18
2022-11-03T10:23:26.694Z,7.35
2022-11-03T10:26:10.035Z,6.68
2022-11-03T10:50:26.767Z,7.63
2022-11-03T10:58:13.058Z,6.45
2022-11-03T11:15:45.230Z,7.15
2022-11-03T11:18:32.267Z,6.50
2022-11-03T11:21:19.525Z,6.43
2022-11-03T11:23:48.629Z,7.13
2022-11-03T11:26:34.399Z,6.85
2022-11-03T11:29:11.604Z,7.30
2022-11-03T11:31:45.426Z,6.18
2022-11-03T11:34:17.402Z,6.32
2022-11-03T11:36:47.314Z,6.97
2022-11-03T11:51:10.763Z,6.68
2022-11-03T11:53:42.103Z,6.22
2022-11-03T11:56:14.416Z,6.72
2022-11-03T12:03:35.555Z,6.15
2022-11-03T12:06:42.359Z,6.47
2022-11-03T12:09:09.589Z,6.25
2022-11-03T12:11:47.699Z,7.40
2022-11-03T12:14:25.014Z,7.63
2022-11-03T12:16:53.285Z,6.95
2022-11-03T12:19:42.050Z,7.13
2022-11-03T12:22:26.005Z,6.85
2022-11-03T12:24:59.490Z,7.03
2022-11-03T12:27:26.474Z,7.78
2022-11-03T12:30:11.781Z,8.05
2022-11-03T12:32:38.869Z,7.03
2022-11-03T12:35:08.529Z,8.30
2022-11-03T12:37:37.513Z,7.35
2022-11-03T12:40:05.802Z,6.70
2022-11-03T12:42:32.797Z,7.53
2022-11-03T12:48:23.727Z,8.48
2022-11-03T12:51:36.290Z,9.20
2022-11-03T12:54:34.532Z,9.18
2022-11-03T13:10:59.170Z,7.85
2022-11-03T13:13:56.679Z,7.80
2022-11-03T13:16:24.092Z,8.02
2022-11-03T13:18:54.907Z,7.90
2022-11-03T13:26:48.075Z,7.75
2022-11-03T13:32:57.563Z,7.57
2022-11-03T13:35:24.589Z,7.82
2022-11-03T13:44:47.711Z,7.85
2022-11-03T13:47:17.821Z,7.03
2022-11-03T13:50:14.553Z,7.05
2022-11-03T14:05:01.418Z,8.00
2022-11-03T14:07:30.103Z,8.48
2022-11-03T14:09:59.363Z,8.30
2022-11-03T14:12:32.470Z,7.78
2022-11-03T14:15:05.110Z,8.05
2022-11-03T14:17:33.025Z,7.80
2022-11-03T14:23:03.427Z,7.38
2022-11-03T14:30:04.416Z,6.93
2022-11-03T14:41:33.200Z,6.70
2022-11-03T14:44:03.721Z,8.02
2022-11-03T14:46:30.704Z,7.80
2022-11-03T14:49:30.653Z,6.95
2022-11-03T14:52:07.897Z,7.88
2022-11-03T14:54:36.399Z,8.32
2022-11-03T14:58:35.936Z,10.80
2022-11-03T15:01:15.208Z,15.70
2022-11-03T15:03:43.841Z,11.65
2022-11-03T15:06:50.056Z,9.52
2022-11-03T15:09:18.214Z,8.52
2022-11-03T15:11:46.172Z,12.52
2022-11-03T15:14:14.425Z,16.20
2022-11-03T15:16:48.215Z,28.20
2022-11-03T15:19:15.337Z,12.02
2022-11-03T15:21:42.569Z,22.65
2022-11-03T15:25:26.265Z,16.92
2022-11-03T15:28:00.364Z,17.67
2022-11-03T15:34:14.641Z,11.45
2022-11-03T15:44:38.200Z,8.77
2022-11-03T15:47:05.387Z,8.30
2022-11-03T15:49:32.407Z,8.38
2022-11-03T16:01:14.655Z,5.40
2022-11-03T16:03:42.256Z,2.80
2022-11-03T16:06:09.375Z,2.92
2022-11-03T16:08:47.231Z,4.30
2022-11-03T16:11:23.545Z,4.45
2022-11-03T16:14:00.735Z,5.03
2022-11-03T16:16:29.098Z,5.63
2022-11-03T16:23:17.002Z,6.07
2022-11-03T16:25:43.983Z,7.22
2022-11-03T16:32:35.138Z,6.03
2022-11-03T16:43:05.111Z,6.32
2022-11-03T16:45:37.242Z,12.95
2022-11-03T16:50:34.630Z,11.98
2022-11-03T16:53:06.246Z,9.50
2022-11-03T16:55:33.551Z,7.82
2022-11-03T16:58:34.051Z,7.00
2022-11-03T17:01:07.210Z,8.82
2022-11-03T17:03:34.805Z,9.63
2022-11-03T17:10:18.666Z,14.97
2022-11-03T17:13:37.566Z,9.35
2022-11-03T17:16:06.964Z,9.70
2022-11-03T17:18:33.957Z,12.00
2022-11-03T17:21:01.365Z,11.20
2022-11-03T17:23:28.363Z,4.28
2022-11-03T17:26:01.397Z,3.85
2022-11-03T17:28:28.907Z,5.15
2022-11-03T17:30:55.871Z,3.75
2022-11-03T17:33:25.957Z,4.10
2022-11-03T17:35:53.205Z,4.35
2022-11-03T17:38:20.338Z,4.78
2022-11-03T17:40:48.628Z,4.30
2022-11-03T17:43:27.646Z,3.70
2022-11-03T17:45:54.768Z,4.10
2022-11-03T17:48:24.539Z,4.63
2022-11-03T17:50:55.102Z,4.97
2022-11-03T17:53:28.715Z,3.05
2022-11-03T17:56:27.950Z,3.65
2022-11-03T17:58:46.871Z,2.72
2022-11-03T18:01:25.135Z,3.53
2022-11-03T18:03:52.332Z,6.30
2022-11-03T18:06:22.091Z,2.30
2022-11-03T18:09:10.570Z,4.47
2022-11-03T18:12:20.379Z,3.20
2022-11-03T18:14:49.969Z,2.30
2022-11-03T18:17:31.074Z,2.50
2022-11-03T18:20:01.462Z,2.13
2022-11-03T18:22:30.819Z,2.53
2022-11-03T18:25:17.437Z,2.13
2022-11-03T18:28:11.196Z,4.32
2022-11-03T18:30:40.515Z,2.92
2022-11-03T18:33:17.971Z,2.40
2022-11-03T18:35:51.904Z,3.08
2022-11-03T18:38:23.979Z,2.88
2022-11-03T18:40:51.450Z,3.72
2022-11-03T18:43:23.995Z,4.53
2022-11-03T18:45:54.473Z,6.97
2022-11-03T18:48:22.190Z,8.40
2022-11-03T18:50:51.741Z,12.20
2022-11-03T18:53:22.541Z,9.27
2022-11-03T18:55:49.955Z,8.27
2022-11-03T18:58:18.068Z,36.80
2022-11-03T19:00:45.466Z,7.53
2022-11-03T19:03:18.310Z,4.20
2022-11-03T19:05:48.120Z,3.72
2022-11-03T19:08:38.531Z,4.85
2022-11-03T19:11:13.566Z,5.60
2022-11-03T19:13:47.876Z,16.10
2022-11-03T19:16:22.086Z,4.53
2022-11-03T19:18:49.456Z,4.03
2022-11-03T19:21:20.790Z,4.13
2022-11-03T19:23:49.094Z,4.00
2022-11-03T19:26:27.274Z,3.95
2022-11-03T19:29:02.020Z,4.07
2022-11-03T19:31:40.066Z,4.65
2022-11-03T19:34:12.775Z,3.97
2022-11-03T19:36:43.057Z,4.97
2022-11-03T19:39:27.013Z,4.35
2022-11-03T19:42:12.509Z,4.72
2022-11-03T19:44:39.900Z,4.55
2022-11-03T19:47:21.443Z,5.93
2022-11-03T19:49:49.170Z,5.80
2022-11-03T19:52:17.771Z,5.82
2022-11-03T19:54:48.148Z,5.75
2022-11-03T19:57:16.856Z,5.82
2022-11-03T19:59:44.661Z,7.53
2022-11-03T20:02:13.528Z,6.97
2022-11-03T20:04:46.858Z,6.63
2022-11-03T20:07:17.309Z,6.82
2022-11-03T20:09:44.489Z,5.93
2022-11-03T20:12:17.580Z,6.70
2022-11-03T20:14:44.920Z,8.25
2022-11-03T20:17:17.293Z,8.30
2022-11-03T20:19:44.524Z,4.38
2022-11-03T20:22:17.049Z,3.92
2022-11-03T20:24:46.319Z,3.28
2022-11-03T20:27:15.330Z,3.28
2022-11-03T20:33:16.322Z,2.60
2022-11-03T20:35:44.734Z,2.40
2022-11-03T20:38:13.583Z,2.88
2022-11-03T20:40:41.492Z,3.05
2022-11-03T20:43:23.343Z,3.97
2022-11-03T20:45:50.348Z,2.30
2022-11-03T20:48:17.562Z,2.80
2022-11-03T20:50:44.805Z,2.70
2022-11-03T20:53:17.268Z,2.88
2022-11-03T20:55:44.691Z,2.40
2022-11-03T20:58:17.359Z,1.90
2022-11-03T21:00:46.334Z,2.05
2022-11-03T21:03:53.674Z,3.00
2022-11-03T21:06:13.006Z,2.30
2022-11-03T21:08:40.091Z,2.58
2022-11-03T21:11:28.053Z,1.88
2022-11-03T21:13:56.852Z,2.88
2022-11-03T21:16:44.234Z,2.13
2022-11-03T21:20:01.318Z,2.10
2022-11-03T21:22:57.932Z,1.95
2022-11-03T21:25:25.461Z,2.30
2022-11-03T21:27:53.709Z,2.30
2022-11-03T21:30:21.755Z,1.90
2022-11-03T21:32:49.132Z,1.88
2022-11-03T21:35:20.463Z,2.05
2022-11-03T21:37:47.403Z,1.60
2022-11-03T21:40:14.719Z,1.80
2022-11-03T21:43:00.374Z,1.80
2022-11-03T21:45:27.379Z,1.80
2022-11-03T21:48:14.422Z,1.80
2022-11-03T21:50:42.179Z,2.03
2022-11-03T21:53:10.111Z,1.80
2022-11-03T21:55:37.465Z,1.65
2022-11-03T21:58:04.689Z,1.65
2022-11-03T22:00:32.357Z,1.73
2022-11-03T22:03:03.391Z,1.23
2022-11-03T22:05:30.557Z,1.85
2022-11-03T22:07:58.236Z,1.50
2022-11-03T22:10:25.307Z,1.33
2022-11-03T22:12:52.237Z,1.38
2022-11-03T22:15:37.797Z,1.40
2022-11-03T22:18:06.613Z,1.35
2022-11-03T22:20:54.307Z,1.30
2022-11-03T22:23:39.729Z,1.30
2022-11-03T22:26:29.002Z,1.40
2022-11-03T22:29:16.913Z,1.50
2022-11-03T22:31:44.102Z,1.10
2022-11-03T22:34:29.684Z,1.10
2022-11-03T22:36:56.609Z,1.13
2022-11-03T22:39:42.506Z,1.15
2022-11-03T22:42:31.100Z,1.30
2022-11-03T22:45:17.114Z,1.15
2022-11-03T22:47:44.290Z,0.93
2022-11-03T22:50:11.268Z,1.05
2022-11-03T22:52:38.321Z,1.17
2022-11-03T22:55:05.562Z,1.08
2022-11-03T22:57:32.626Z,1.27
2022-11-03T22:59:59.579Z,1.15
2022-11-03T23:02:26.647Z,0.90
2022-11-03T23:04:53.696Z,0.80
2022-11-03T23:07:20.684Z,1.10
2022-11-03T23:09:48.008Z,1.00
2022-11-03T23:12:15.471Z,1.17
2022-11-03T23:15:00.973Z,0.90
2022-11-03T23:17:48.511Z,1.00
2022-11-03T23:20:33.914Z,0.80
2022-11-03T23:23:00.965Z,0.90
2022-11-03T23:25:27.871Z,1.00
2022-11-03T23:27:54.888Z,1.05
2022-11-03T23:30:21.859Z,1.05
2022-11-03T23:32:48.813Z,0.98
2022-11-03T23:35:16.951Z,1.45
2022-11-03T23:37:43.878Z,1.10
2022-11-03T23:40:11.593Z,0.98
2022-11-03T23:42:38.535Z,0.90
2022-11-03T23:45:24.261Z,0.80
2022-11-03T23:48:10.332Z,1.10
2022-11-03T23:50:38.840Z,0.95
2022-11-03T23:53:05.800Z,0.73
2022-11-03T23:55:53.883Z,0.88
2022-11-03T23:58:21.662Z,0.82
